sensor_id;sensor_type;location;lat;lon;timestamp;P1;durP1;ratioP1;P2;durP2;ratioP2
71172;SDS011;58875;51.996;4.504;2023-02-04T00:00:50;14.38;;;9.52;;
71172;SDS011;58875;51.996;4.504;2023-02-04T00:03:16;15.63;;;10.41;;
71172;SDS011;58875;51.996;4.504;2023-02-04T00:05:41;13.86;;;9.60;;
71172;SDS011;58875;51.996;4.504;2023-02-04T00:08:07;14.79;;;10.14;;
71172;SDS011;58875;51.996;4.504;2023-02-04T00:10:33;15.04;;;10.64;;
71172;SDS011;58875;51.996;4.504;2023-02-04T00:12:59;14.76;;;10.61;;
71172;SDS011;58875;51.996;4.504;2023-02-04T00:15:25;14.01;;;10.27;;
71172;SDS011;58875;51.996;4.504;2023-02-04T00:17:51;13.92;;;10.22;;
71172;SDS011;58875;51.996;4.504;2023-02-04T00:20:16;13.55;;;9.84;;
71172;SDS011;58875;51.996;4.504;2023-02-04T00:22:43;12.52;;;9.17;;
71172;SDS011;58875;51.996;4.504;2023-02-04T00:25:09;12.56;;;9.28;;
71172;SDS011;58875;51.996;4.504;2023-02-04T00:27:35;14.38;;;10.23;;
71172;SDS011;58875;51.996;4.504;2023-02-04T00:30:00;13.70;;;9.73;;
71172;SDS011;58875;51.996;4.504;2023-02-04T00:32:26;12.53;;;9.21;;
71172;SDS011;58875;51.996;4.504;2023-02-04T00:34:52;13.64;;;9.90;;
71172;SDS011;58875;51.996;4.504;2023-02-04T00:37:17;12.85;;;9.43;;
71172;SDS011;58875;51.996;4.504;2023-02-04T00:39:43;12.80;;;9.65;;
71172;SDS011;58875;51.996;4.504;2023-02-04T00:42:09;12.48;;;9.56;;
71172;SDS011;58875;51.996;4.504;2023-02-04T00:44:34;12.55;;;9.57;;
71172;SDS011;58875;51.996;4.504;2023-02-04T00:47:00;10.99;;;8.61;;
71172;SDS011;58875;51.996;4.504;2023-02-04T00:49:26;10.08;;;7.97;;
71172;SDS011;58875;51.996;4.504;2023-02-04T00:51:52;11.35;;;8.82;;
71172;SDS011;58875;51.996;4.504;2023-02-04T00:54:17;10.34;;;8.09;;
71172;SDS011;58875;51.996;4.504;2023-02-04T00:56:43;9.61;;;7.67;;
71172;SDS011;58875;51.996;4.504;2023-02-04T00:59:09;9.80;;;7.83;;
71172;SDS011;58875;51.996;4.504;2023-02-04T01:01:35;9.74;;;7.78;;
71172;SDS011;58875;51.996;4.504;2023-02-04T01:04:01;8.14;;;6.81;;
71172;SDS011;58875;51.996;4.504;2023-02-04T01:06:27;8.11;;;6.84;;
71172;SDS011;58875;51.996;4.504;2023-02-04T01:08:53;8.23;;;6.83;;
71172;SDS011;58875;51.996;4.504;2023-02-04T01:11:19;7.64;;;6.49;;
71172;SDS011;58875;51.996;4.504;2023-02-04T01:13:44;7.77;;;6.60;;
71172;SDS011;58875;51.996;4.504;2023-02-04T01:16:10;7.89;;;6.68;;
71172;SDS011;58875;51.996;4.504;2023-02-04T01:18:37;8.09;;;6.65;;
71172;SDS011;58875;51.996;4.504;2023-02-04T01:21:02;8.60;;;6.87;;
71172;SDS011;58875;51.996;4.504;2023-02-04T01:23:28;9.00;;;7.18;;
71172;SDS011;58875;51.996;4.504;2023-02-04T01:25:53;8.42;;;6.79;;
71172;SDS011;58875;51.996;4.504;2023-02-04T01:28:19;8.74;;;6.95;;
71172;SDS011;58875;51.996;4.504;2023-02-04T01:30:45;8.41;;;6.66;;
71172;SDS011;58875;51.996;4.504;2023-02-04T01:33:10;8.99;;;7.09;;
71172;SDS011;58875;51.996;4.504;2023-02-04T01:35:36;9.02;;;7.24;;
71172;SDS011;58875;51.996;4.504;2023-02-04T01:38:01;7.73;;;6.48;;
71172;SDS011;58875;51.996;4.504;2023-02-04T01:40:30;7.68;;;6.37;;
71172;SDS011;58875;51.996;4.504;2023-02-04T01:42:58;7.68;;;6.36;;
71172;SDS011;58875;51.996;4.504;2023-02-04T01:45:24;8.36;;;6.69;;
71172;SDS011;58875;51.996;4.504;2023-02-04T01:47:49;8.23;;;6.43;;
71172;SDS011;58875;51.996;4.504;2023-02-04T01:50:16;7.67;;;6.02;;
71172;SDS011;58875;51.996;4.504;2023-02-04T01:52:43;8.24;;;6.49;;
71172;SDS011;58875;51.996;4.504;2023-02-04T01:55:11;8.05;;;6.25;;
71172;SDS011;58875;51.996;4.504;2023-02-04T01:57:39;8.33;;;6.36;;
71172;SDS011;58875;51.996;4.504;2023-02-04T02:00:05;8.68;;;6.60;;
71172;SDS011;58875;51.996;4.504;2023-02-04T02:02:58;9.37;;;6.93;;
71172;SDS011;58875;51.996;4.504;2023-02-04T02:05:30;10.44;;;7.38;;
71172;SDS011;58875;51.996;4.504;2023-02-04T02:08:02;10.04;;;7.04;;
71172;SDS011;58875;51.996;4.504;2023-02-04T02:10:30;11.31;;;7.69;;
71172;SDS011;58875;51.996;4.504;2023-02-04T02:12:57;11.83;;;7.78;;
71172;SDS011;58875;51.996;4.504;2023-02-04T02:15:23;12.87;;;8.40;;
71172;SDS011;58875;51.996;4.504;2023-02-04T02:17:50;12.23;;;8.03;;
71172;SDS011;58875;51.996;4.504;2023-02-04T02:20:18;10.71;;;7.04;;
71172;SDS011;58875;51.996;4.504;2023-02-04T02:25:11;11.86;;;7.62;;
71172;SDS011;58875;51.996;4.504;2023-02-04T02:27:38;12.46;;;8.00;;
71172;SDS011;58875;51.996;4.504;2023-02-04T02:30:05;12.00;;;7.61;;
71172;SDS011;58875;51.996;4.504;2023-02-04T02:32:34;12.61;;;7.89;;
71172;SDS011;58875;51.996;4.504;2023-02-04T02:35:01;12.54;;;7.86;;
71172;SDS011;58875;51.996;4.504;2023-02-04T02:37:28;12.67;;;7.92;;
71172;SDS011;58875;51.996;4.504;2023-02-04T02:39:54;12.49;;;7.86;;
71172;SDS011;58875;51.996;4.504;2023-02-04T02:42:20;12.13;;;7.66;;
71172;SDS011;58875;51.996;4.504;2023-02-04T02:44:47;12.05;;;7.70;;
71172;SDS011;58875;51.996;4.504;2023-02-04T02:47:15;11.86;;;7.52;;
71172;SDS011;58875;51.996;4.504;2023-02-04T02:49:45;13.58;;;8.56;;
71172;SDS011;58875;51.996;4.504;2023-02-04T02:52:14;12.02;;;7.54;;
71172;SDS011;58875;51.996;4.504;2023-02-04T02:54:40;12.61;;;7.94;;
71172;SDS011;58875;51.996;4.504;2023-02-04T02:57:11;12.79;;;8.10;;
71172;SDS011;58875;51.996;4.504;2023-02-04T02:59:43;13.31;;;8.43;;
71172;SDS011;58875;51.996;4.504;2023-02-04T03:02:10;12.55;;;7.91;;
71172;SDS011;58875;51.996;4.504;2023-02-04T03:04:40;12.02;;;7.60;;
71172;SDS011;58875;51.996;4.504;2023-02-04T03:07:11;11.41;;;7.21;;
71172;SDS011;58875;51.996;4.504;2023-02-04T03:09:39;12.54;;;7.87;;
71172;SDS011;58875;51.996;4.504;2023-02-04T03:12:05;12.10;;;7.58;;
71172;SDS011;58875;51.996;4.504;2023-02-04T03:14:31;13.01;;;8.09;;
71172;SDS011;58875;51.996;4.504;2023-02-04T03:16:57;14.51;;;8.92;;
71172;SDS011;58875;51.996;4.504;2023-02-04T03:19:26;12.32;;;7.70;;
71172;SDS011;58875;51.996;4.504;2023-02-04T03:21:55;10.97;;;6.97;;
71172;SDS011;58875;51.996;4.504;2023-02-04T03:24:23;10.38;;;6.63;;
71172;SDS011;58875;51.996;4.504;2023-02-04T03:26:49;11.71;;;7.45;;
71172;SDS011;58875;51.996;4.504;2023-02-04T03:29:15;11.36;;;7.24;;
71172;SDS011;58875;51.996;4.504;2023-02-04T03:31:41;12.63;;;7.88;;
71172;SDS011;58875;51.996;4.504;2023-02-04T03:34:06;12.24;;;7.69;;
71172;SDS011;58875;51.996;4.504;2023-02-04T03:36:32;12.82;;;8.04;;
71172;SDS011;58875;51.996;4.504;2023-02-04T03:38:57;12.16;;;7.64;;
71172;SDS011;58875;51.996;4.504;2023-02-04T03:41:23;13.12;;;8.21;;
71172;SDS011;58875;51.996;4.504;2023-02-04T03:43:49;13.05;;;8.20;;
71172;SDS011;58875;51.996;4.504;2023-02-04T03:46:15;12.08;;;7.62;;
71172;SDS011;58875;51.996;4.504;2023-02-04T03:48:40;12.62;;;7.96;;
71172;SDS011;58875;51.996;4.504;2023-02-04T03:51:06;13.58;;;8.53;;
71172;SDS011;58875;51.996;4.504;2023-02-04T03:53:31;12.92;;;8.12;;
71172;SDS011;58875;51.996;4.504;2023-02-04T03:55:57;11.69;;;7.33;;
71172;SDS011;58875;51.996;4.504;2023-02-04T03:58:22;12.81;;;8.00;;
71172;SDS011;58875;51.996;4.504;2023-02-04T04:00:48;12.97;;;8.17;;
71172;SDS011;58875;51.996;4.504;2023-02-04T04:03:14;12.46;;;7.81;;
71172;SDS011;58875;51.996;4.504;2023-02-04T04:05:39;11.98;;;7.54;;
71172;SDS011;58875;51.996;4.504;2023-02-04T04:08:05;11.44;;;7.23;;
71172;SDS011;58875;51.996;4.504;2023-02-04T04:10:30;13.62;;;8.53;;
71172;SDS011;58875;51.996;4.504;2023-02-04T04:12:56;11.57;;;7.37;;
71172;SDS011;58875;51.996;4.504;2023-02-04T04:15:22;10.97;;;7.03;;
71172;SDS011;58875;51.996;4.504;2023-02-04T04:17:47;10.81;;;6.90;;
71172;SDS011;58875;51.996;4.504;2023-02-04T04:20:13;11.71;;;7.40;;
71172;SDS011;58875;51.996;4.504;2023-02-04T04:22:39;11.68;;;7.36;;
71172;SDS011;58875;51.996;4.504;2023-02-04T04:25:04;12.50;;;7.95;;
71172;SDS011;58875;51.996;4.504;2023-02-04T04:27:31;12.42;;;7.85;;
71172;SDS011;58875;51.996;4.504;2023-02-04T04:29:56;13.06;;;8.23;;
71172;SDS011;58875;51.996;4.504;2023-02-04T04:32:22;13.45;;;8.50;;
71172;SDS011;58875;51.996;4.504;2023-02-04T04:34:47;12.68;;;8.04;;
71172;SDS011;58875;51.996;4.504;2023-02-04T04:37:13;12.43;;;7.92;;
71172;SDS011;58875;51.996;4.504;2023-02-04T04:39:39;11.99;;;7.64;;
71172;SDS011;58875;51.996;4.504;2023-02-04T04:42:04;10.87;;;7.02;;
71172;SDS011;58875;51.996;4.504;2023-02-04T04:44:30;11.07;;;7.21;;
71172;SDS011;58875;51.996;4.504;2023-02-04T04:46:55;10.30;;;6.73;;
71172;SDS011;58875;51.996;4.504;2023-02-04T04:49:21;12.44;;;8.05;;
71172;SDS011;58875;51.996;4.504;2023-02-04T04:51:46;11.76;;;7.65;;
71172;SDS011;58875;51.996;4.504;2023-02-04T04:54:12;12.20;;;7.83;;
71172;SDS011;58875;51.996;4.504;2023-02-04T04:56:37;11.96;;;7.69;;
71172;SDS011;58875;51.996;4.504;2023-02-04T04:59:03;12.57;;;8.14;;
71172;SDS011;58875;51.996;4.504;2023-02-04T05:01:29;11.09;;;7.28;;
71172;SDS011;58875;51.996;4.504;2023-02-04T05:03:54;11.18;;;7.33;;
71172;SDS011;58875;51.996;4.504;2023-02-04T05:06:20;12.26;;;7.88;;
71172;SDS011;58875;51.996;4.504;2023-02-04T05:08:52;12.43;;;8.02;;
71172;SDS011;58875;51.996;4.504;2023-02-04T05:11:18;12.36;;;7.91;;
71172;SDS011;58875;51.996;4.504;2023-02-04T05:13:44;12.06;;;7.76;;
71172;SDS011;58875;51.996;4.504;2023-02-04T05:16:10;11.35;;;7.37;;
71172;SDS011;58875;51.996;4.504;2023-02-04T05:18:38;12.13;;;7.84;;
71172;SDS011;58875;51.996;4.504;2023-02-04T05:21:04;13.43;;;8.56;;
71172;SDS011;58875;51.996;4.504;2023-02-04T05:23:31;13.59;;;8.69;;
71172;SDS011;58875;51.996;4.504;2023-02-04T05:25:56;12.89;;;8.20;;
71172;SDS011;58875;51.996;4.504;2023-02-04T05:28:22;13.01;;;8.29;;
71172;SDS011;58875;51.996;4.504;2023-02-04T05:30:47;13.15;;;8.42;;
71172;SDS011;58875;51.996;4.504;2023-02-04T05:33:13;12.07;;;7.68;;
71172;SDS011;58875;51.996;4.504;2023-02-04T05:35:39;11.78;;;7.59;;
71172;SDS011;58875;51.996;4.504;2023-02-04T05:38:04;12.13;;;7.86;;
71172;SDS011;58875;51.996;4.504;2023-02-04T05:40:30;13.10;;;8.42;;
71172;SDS011;58875;51.996;4.504;2023-02-04T05:42:55;12.54;;;8.07;;
71172;SDS011;58875;51.996;4.504;2023-02-04T05:45:21;13.83;;;8.88;;
71172;SDS011;58875;51.996;4.504;2023-02-04T05:47:46;12.56;;;8.12;;
71172;SDS011;58875;51.996;4.504;2023-02-04T05:50:12;12.57;;;8.12;;
71172;SDS011;58875;51.996;4.504;2023-02-04T05:52:39;12.69;;;8.18;;
71172;SDS011;58875;51.996;4.504;2023-02-04T05:55:04;11.80;;;7.72;;
71172;SDS011;58875;51.996;4.504;2023-02-04T05:57:30;12.58;;;8.23;;
71172;SDS011;58875;51.996;4.504;2023-02-04T05:59:56;12.32;;;8.03;;
71172;SDS011;58875;51.996;4.504;2023-02-04T06:02:22;11.85;;;7.97;;
71172;SDS011;58875;51.996;4.504;2023-02-04T06:04:47;11.95;;;8.01;;
71172;SDS011;58875;51.996;4.504;2023-02-04T06:07:13;12.52;;;8.37;;
71172;SDS011;58875;51.996;4.504;2023-02-04T06:09:38;11.67;;;7.94;;
71172;SDS011;58875;51.996;4.504;2023-02-04T06:12:04;11.49;;;7.86;;
71172;SDS011;58875;51.996;4.504;2023-02-04T06:14:29;12.76;;;8.63;;
71172;SDS011;58875;51.996;4.504;2023-02-04T06:16:55;11.81;;;8.16;;
71172;SDS011;58875;51.996;4.504;2023-02-04T06:19:20;12.94;;;8.86;;
71172;SDS011;58875;51.996;4.504;2023-02-04T06:21:46;11.69;;;8.06;;
71172;SDS011;58875;51.996;4.504;2023-02-04T06:24:11;10.84;;;7.64;;
71172;SDS011;58875;51.996;4.504;2023-02-04T06:26:37;11.99;;;8.38;;
71172;SDS011;58875;51.996;4.504;2023-02-04T06:29:03;11.85;;;8.30;;
71172;SDS011;58875;51.996;4.504;2023-02-04T06:31:28;11.49;;;8.18;;
71172;SDS011;58875;51.996;4.504;2023-02-04T06:33:54;11.78;;;8.43;;
71172;SDS011;58875;51.996;4.504;2023-02-04T06:36:20;11.71;;;8.47;;
71172;SDS011;58875;51.996;4.504;2023-02-04T06:38:45;10.51;;;7.63;;
71172;SDS011;58875;51.996;4.504;2023-02-04T06:41:11;10.30;;;7.63;;
71172;SDS011;58875;51.996;4.504;2023-02-04T06:43:36;10.45;;;7.67;;
71172;SDS011;58875;51.996;4.504;2023-02-04T06:46:02;10.63;;;7.78;;
71172;SDS011;58875;51.996;4.504;2023-02-04T06:48:27;10.22;;;7.40;;
71172;SDS011;58875;51.996;4.504;2023-02-04T06:50:53;9.76;;;7.15;;
71172;SDS011;58875;51.996;4.504;2023-02-04T06:53:18;9.55;;;7.19;;
71172;SDS011;58875;51.996;4.504;2023-02-04T06:55:44;9.49;;;7.16;;
71172;SDS011;58875;51.996;4.504;2023-02-04T06:58:10;8.85;;;6.73;;
71172;SDS011;58875;51.996;4.504;2023-02-04T07:00:35;9.02;;;6.80;;
71172;SDS011;58875;51.996;4.504;2023-02-04T07:03:01;10.05;;;7.41;;
71172;SDS011;58875;51.996;4.504;2023-02-04T07:05:31;9.82;;;7.19;;
71172;SDS011;58875;51.996;4.504;2023-02-04T07:07:57;8.58;;;6.56;;
71172;SDS011;58875;51.996;4.504;2023-02-04T07:10:23;8.44;;;6.50;;
71172;SDS011;58875;51.996;4.504;2023-02-04T07:12:49;8.51;;;6.50;;
71172;SDS011;58875;51.996;4.504;2023-02-04T07:15:17;8.57;;;6.54;;
71172;SDS011;58875;51.996;4.504;2023-02-04T07:17:43;9.52;;;7.22;;
71172;SDS011;58875;51.996;4.504;2023-02-04T07:20:09;9.49;;;7.17;;
71172;SDS011;58875;51.996;4.504;2023-02-04T07:22:35;9.47;;;7.13;;
71172;SDS011;58875;51.996;4.504;2023-02-04T07:25:01;10.84;;;8.08;;
71172;SDS011;58875;51.996;4.504;2023-02-04T07:27:26;13.88;;;10.44;;
71172;SDS011;58875;51.996;4.504;2023-02-04T07:29:52;13.01;;;9.71;;
71172;SDS011;58875;51.996;4.504;2023-02-04T07:32:17;13.21;;;9.58;;
71172;SDS011;58875;51.996;4.504;2023-02-04T07:34:43;12.79;;;9.18;;
71172;SDS011;58875;51.996;4.504;2023-02-04T07:37:08;10.98;;;8.12;;
71172;SDS011;58875;51.996;4.504;2023-02-04T07:39:34;10.63;;;7.84;;
71172;SDS011;58875;51.996;4.504;2023-02-04T07:41:59;12.03;;;8.89;;
71172;SDS011;58875;51.996;4.504;2023-02-04T07:44:25;11.58;;;8.55;;
71172;SDS011;58875;51.996;4.504;2023-02-04T07:46:50;11.91;;;8.67;;
71172;SDS011;58875;51.996;4.504;2023-02-04T07:49:16;12.76;;;9.24;;
71172;SDS011;58875;51.996;4.504;2023-02-04T07:51:41;12.75;;;9.17;;
71172;SDS011;58875;51.996;4.504;2023-02-04T07:54:07;12.20;;;8.86;;
71172;SDS011;58875;51.996;4.504;2023-02-04T07:56:32;12.41;;;9.21;;
71172;SDS011;58875;51.996;4.504;2023-02-04T07:58:58;12.45;;;9.07;;
71172;SDS011;58875;51.996;4.504;2023-02-04T08:01:24;12.89;;;9.32;;
71172;SDS011;58875;51.996;4.504;2023-02-04T08:03:49;12.80;;;9.41;;
71172;SDS011;58875;51.996;4.504;2023-02-04T08:06:15;12.49;;;9.16;;
71172;SDS011;58875;51.996;4.504;2023-02-04T08:08:40;12.78;;;9.34;;
71172;SDS011;58875;51.996;4.504;2023-02-04T08:11:06;13.22;;;9.55;;
71172;SDS011;58875;51.996;4.504;2023-02-04T08:13:32;12.39;;;9.10;;
71172;SDS011;58875;51.996;4.504;2023-02-04T08:15:57;11.17;;;8.45;;
71172;SDS011;58875;51.996;4.504;2023-02-04T08:18:23;11.80;;;9.05;;
71172;SDS011;58875;51.996;4.504;2023-02-04T08:20:49;11.55;;;9.21;;
71172;SDS011;58875;51.996;4.504;2023-02-04T08:23:15;10.67;;;8.74;;
71172;SDS011;58875;51.996;4.504;2023-02-04T08:25:40;10.73;;;8.59;;
71172;SDS011;58875;51.996;4.504;2023-02-04T08:28:06;10.31;;;8.41;;
71172;SDS011;58875;51.996;4.504;2023-02-04T08:30:32;10.82;;;8.82;;
71172;SDS011;58875;51.996;4.504;2023-02-04T08:32:57;10.34;;;8.56;;
71172;SDS011;58875;51.996;4.504;2023-02-04T08:35:23;10.19;;;8.50;;
71172;SDS011;58875;51.996;4.504;2023-02-04T08:37:48;10.50;;;8.73;;
71172;SDS011;58875;51.996;4.504;2023-02-04T08:40:14;9.99;;;8.47;;
71172;SDS011;58875;51.996;4.504;2023-02-04T08:42:39;9.71;;;8.21;;
71172;SDS011;58875;51.996;4.504;2023-02-04T08:45:05;9.71;;;8.24;;
71172;SDS011;58875;51.996;4.504;2023-02-04T08:47:31;10.47;;;8.71;;
71172;SDS011;58875;51.996;4.504;2023-02-04T08:49:56;11.17;;;9.29;;
71172;SDS011;58875;51.996;4.504;2023-02-04T08:52:22;10.89;;;9.16;;
71172;SDS011;58875;51.996;4.504;2023-02-04T08:54:48;10.14;;;8.49;;
71172;SDS011;58875;51.996;4.504;2023-02-04T08:57:13;11.45;;;9.46;;
71172;SDS011;58875;51.996;4.504;2023-02-04T08:59:39;11.72;;;9.45;;
71172;SDS011;58875;51.996;4.504;2023-02-04T09:02:05;10.75;;;8.83;;
71172;SDS011;58875;51.996;4.504;2023-02-04T09:04:30;10.49;;;8.63;;
71172;SDS011;58875;51.996;4.504;2023-02-04T09:06:56;10.57;;;8.52;;
71172;SDS011;58875;51.996;4.504;2023-02-04T09:09:22;10.71;;;8.55;;
71172;SDS011;58875;51.996;4.504;2023-02-04T09:11:47;11.61;;;9.07;;
71172;SDS011;58875;51.996;4.504;2023-02-04T09:14:13;11.78;;;9.22;;
71172;SDS011;58875;51.996;4.504;2023-02-04T09:16:38;12.10;;;9.73;;
71172;SDS011;58875;51.996;4.504;2023-02-04T09:19:04;10.49;;;8.56;;
71172;SDS011;58875;51.996;4.504;2023-02-04T09:21:30;12.08;;;9.70;;
71172;SDS011;58875;51.996;4.504;2023-02-04T09:23:56;11.26;;;9.24;;
71172;SDS011;58875;51.996;4.504;2023-02-04T09:26:22;12.57;;;10.01;;
71172;SDS011;58875;51.996;4.504;2023-02-04T09:28:48;11.45;;;9.26;;
71172;SDS011;58875;51.996;4.504;2023-02-04T09:31:13;10.83;;;9.08;;
71172;SDS011;58875;51.996;4.504;2023-02-04T09:33:40;11.64;;;9.77;;
71172;SDS011;58875;51.996;4.504;2023-02-04T09:36:06;11.69;;;9.54;;
71172;SDS011;58875;51.996;4.504;2023-02-04T09:38:31;11.64;;;9.56;;
71172;SDS011;58875;51.996;4.504;2023-02-04T09:41:01;11.92;;;9.85;;
71172;SDS011;58875;51.996;4.504;2023-02-04T09:43:31;11.39;;;9.44;;
71172;SDS011;58875;51.996;4.504;2023-02-04T09:46:01;11.82;;;9.74;;
71172;SDS011;58875;51.996;4.504;2023-02-04T09:48:27;9.62;;;7.82;;
71172;SDS011;58875;51.996;4.504;2023-02-04T09:50:58;7.82;;;6.06;;
71172;SDS011;58875;51.996;4.504;2023-02-04T09:53:30;8.21;;;6.09;;
71172;SDS011;58875;51.996;4.504;2023-02-04T09:55:56;7.85;;;5.76;;
71172;SDS011;58875;51.996;4.504;2023-02-04T09:58:23;7.66;;;5.62;;
71172;SDS011;58875;51.996;4.504;2023-02-04T10:00:57;7.76;;;5.58;;
71172;SDS011;58875;51.996;4.504;2023-02-04T10:03:29;11.64;;;8.29;;
71172;SDS011;58875;51.996;4.504;2023-02-04T10:05:59;10.73;;;8.01;;
71172;SDS011;58875;51.996;4.504;2023-02-04T10:08:26;9.87;;;7.53;;
71172;SDS011;58875;51.996;4.504;2023-02-04T10:10:54;10.25;;;7.93;;
71172;SDS011;58875;51.996;4.504;2023-02-04T10:13:23;10.00;;;7.84;;
71172;SDS011;58875;51.996;4.504;2023-02-04T10:15:58;10.13;;;8.04;;
71172;SDS011;58875;51.996;4.504;2023-02-04T10:18:28;9.95;;;8.07;;
71172;SDS011;58875;51.996;4.504;2023-02-04T10:23:38;8.90;;;7.24;;
71172;SDS011;58875;51.996;4.504;2023-02-04T10:26:04;9.20;;;7.41;;
71172;SDS011;58875;51.996;4.504;2023-02-04T10:28:33;8.44;;;6.83;;
71172;SDS011;58875;51.996;4.504;2023-02-04T10:31:00;7.97;;;6.45;;
71172;SDS011;58875;51.996;4.504;2023-02-04T10:33:26;7.85;;;6.27;;
71172;SDS011;58875;51.996;4.504;2023-02-04T10:35:52;8.70;;;6.80;;
71172;SDS011;58875;51.996;4.504;2023-02-04T10:38:20;8.77;;;6.81;;
71172;SDS011;58875;51.996;4.504;2023-02-04T10:40:46;9.13;;;6.95;;
71172;SDS011;58875;51.996;4.504;2023-02-04T10:43:14;8.74;;;6.84;;
71172;SDS011;58875;51.996;4.504;2023-02-04T10:45:57;8.73;;;7.01;;
71172;SDS011;58875;51.996;4.504;2023-02-04T10:48:27;8.85;;;7.41;;
71172;SDS011;58875;51.996;4.504;2023-02-04T10:50:54;8.90;;;7.45;;
71172;SDS011;58875;51.996;4.504;2023-02-04T10:53:23;7.35;;;6.26;;
71172;SDS011;58875;51.996;4.504;2023-02-04T10:56:26;6.97;;;5.83;;
71172;SDS011;58875;51.996;4.504;2023-02-04T10:58:51;7.67;;;6.20;;
71172;SDS011;58875;51.996;4.504;2023-02-04T11:01:17;8.33;;;6.60;;
71172;SDS011;58875;51.996;4.504;2023-02-04T11:03:42;8.37;;;6.53;;
71172;SDS011;58875;51.996;4.504;2023-02-04T11:06:13;8.75;;;6.86;;
71172;SDS011;58875;51.996;4.504;2023-02-04T11:08:44;9.42;;;7.39;;
71172;SDS011;58875;51.996;4.504;2023-02-04T11:11:17;9.35;;;7.40;;
71172;SDS011;58875;51.996;4.504;2023-02-04T11:18:47;11.40;;;8.53;;
71172;SDS011;58875;51.996;4.504;2023-02-04T11:21:21;11.40;;;8.55;;
71172;SDS011;58875;51.996;4.504;2023-02-04T11:26:43;11.05;;;8.38;;
71172;SDS011;58875;51.996;4.504;2023-02-04T11:39:47;10.71;;;7.86;;
71172;SDS011;58875;51.996;4.504;2023-02-04T11:47:20;10.15;;;7.58;;
71172;SDS011;58875;51.996;4.504;2023-02-04T11:49:57;9.65;;;7.18;;
71172;SDS011;58875;51.996;4.504;2023-02-04T11:52:27;9.48;;;6.93;;
71172;SDS011;58875;51.996;4.504;2023-02-04T11:54:53;8.48;;;6.17;;
71172;SDS011;58875;51.996;4.504;2023-02-04T11:57:20;7.35;;;5.31;;
71172;SDS011;58875;51.996;4.504;2023-02-04T11:59:46;7.29;;;5.21;;
71172;SDS011;58875;51.996;4.504;2023-02-04T12:02:17;7.30;;;5.22;;
71172;SDS011;58875;51.996;4.504;2023-02-04T12:07:20;9.67;;;6.84;;
71172;SDS011;58875;51.996;4.504;2023-02-04T12:09:48;9.52;;;6.87;;
71172;SDS011;58875;51.996;4.504;2023-02-04T12:12:21;8.29;;;6.03;;
71172;SDS011;58875;51.996;4.504;2023-02-04T12:14:55;8.42;;;6.09;;
71172;SDS011;58875;51.996;4.504;2023-02-04T12:17:22;8.29;;;5.97;;
71172;SDS011;58875;51.996;4.504;2023-02-04T12:19:47;8.14;;;5.88;;
71172;SDS011;58875;51.996;4.504;2023-02-04T12:22:13;8.41;;;6.23;;
71172;SDS011;58875;51.996;4.504;2023-02-04T12:24:41;8.72;;;6.52;;
71172;SDS011;58875;51.996;4.504;2023-02-04T12:27:08;8.58;;;6.33;;
71172;SDS011;58875;51.996;4.504;2023-02-04T12:29:33;7.98;;;5.96;;
71172;SDS011;58875;51.996;4.504;2023-02-04T12:31:59;8.46;;;6.36;;
71172;SDS011;58875;51.996;4.504;2023-02-04T12:34:24;7.49;;;5.79;;
71172;SDS011;58875;51.996;4.504;2023-02-04T12:36:50;7.03;;;5.64;;
71172;SDS011;58875;51.996;4.504;2023-02-04T12:39:16;6.66;;;5.14;;
71172;SDS011;58875;51.996;4.504;2023-02-04T12:41:41;8.14;;;6.14;;
71172;SDS011;58875;51.996;4.504;2023-02-04T12:44:07;8.50;;;6.40;;
71172;SDS011;58875;51.996;4.504;2023-02-04T12:46:32;7.91;;;6.10;;
71172;SDS011;58875;51.996;4.504;2023-02-04T12:48:58;7.42;;;5.83;;
71172;SDS011;58875;51.996;4.504;2023-02-04T12:51:23;8.42;;;6.50;;
71172;SDS011;58875;51.996;4.504;2023-02-04T12:53:49;7.93;;;6.14;;
71172;SDS011;58875;51.996;4.504;2023-02-04T12:56:14;8.35;;;6.36;;
71172;SDS011;58875;51.996;4.504;2023-02-04T12:58:40;7.59;;;5.99;;
71172;SDS011;58875;51.996;4.504;2023-02-04T13:01:06;7.78;;;6.11;;
71172;SDS011;58875;51.996;4.504;2023-02-04T13:03:32;7.54;;;5.90;;
71172;SDS011;58875;51.996;4.504;2023-02-04T13:05:58;7.45;;;5.98;;
71172;SDS011;58875;51.996;4.504;2023-02-04T13:08:26;7.55;;;5.90;;
71172;SDS011;58875;51.996;4.504;2023-02-04T13:10:51;7.68;;;6.00;;
71172;SDS011;58875;51.996;4.504;2023-02-04T13:13:18;7.96;;;6.16;;
71172;SDS011;58875;51.996;4.504;2023-02-04T13:15:44;8.99;;;6.85;;
71172;SDS011;58875;51.996;4.504;2023-02-04T13:18:10;8.82;;;6.80;;
71172;SDS011;58875;51.996;4.504;2023-02-04T13:20:36;10.19;;;7.65;;
71172;SDS011;58875;51.996;4.504;2023-02-04T13:23:03;9.74;;;7.58;;
71172;SDS011;58875;51.996;4.504;2023-02-04T13:25:28;9.06;;;7.11;;
71172;SDS011;58875;51.996;4.504;2023-02-04T13:27:54;8.64;;;6.86;;
71172;SDS011;58875;51.996;4.504;2023-02-04T13:30:20;10.17;;;8.20;;
71172;SDS011;58875;51.996;4.504;2023-02-04T13:32:45;10.38;;;8.66;;
71172;SDS011;58875;51.996;4.504;2023-02-04T13:35:11;10.14;;;8.72;;
71172;SDS011;58875;51.996;4.504;2023-02-04T13:37:37;9.72;;;8.62;;
71172;SDS011;58875;51.996;4.504;2023-02-04T13:40:03;9.51;;;8.65;;
71172;SDS011;58875;51.996;4.504;2023-02-04T13:42:30;9.65;;;8.84;;
71172;SDS011;58875;51.996;4.504;2023-02-04T13:44:58;10.00;;;9.28;;
71172;SDS011;58875;51.996;4.504;2023-02-04T13:47:24;10.12;;;9.50;;
71172;SDS011;58875;51.996;4.504;2023-02-04T13:49:49;10.86;;;10.38;;
71172;SDS011;58875;51.996;4.504;2023-02-04T13:52:15;10.21;;;10.06;;
71172;SDS011;58875;51.996;4.504;2023-02-04T13:54:42;10.85;;;10.67;;
71172;SDS011;58875;51.996;4.504;2023-02-04T13:57:11;10.85;;;10.69;;
71172;SDS011;58875;51.996;4.504;2023-02-04T13:59:37;10.45;;;10.30;;
71172;SDS011;58875;51.996;4.504;2023-02-04T14:02:03;10.43;;;10.26;;
71172;SDS011;58875;51.996;4.504;2023-02-04T14:04:28;9.95;;;9.82;;
71172;SDS011;58875;51.996;4.504;2023-02-04T14:06:54;8.95;;;8.88;;
71172;SDS011;58875;51.996;4.504;2023-02-04T14:09:20;8.48;;;8.34;;
71172;SDS011;58875;51.996;4.504;2023-02-04T14:11:47;8.05;;;7.97;;
71172;SDS011;58875;51.996;4.504;2023-02-04T14:14:12;7.79;;;7.66;;
71172;SDS011;58875;51.996;4.504;2023-02-04T14:16:38;7.54;;;7.37;;
71172;SDS011;58875;51.996;4.504;2023-02-04T14:19:04;7.43;;;7.32;;
71172;SDS011;58875;51.996;4.504;2023-02-04T14:21:30;7.52;;;7.36;;
71172;SDS011;58875;51.996;4.504;2023-02-04T14:23:57;6.93;;;6.86;;
71172;SDS011;58875;51.996;4.504;2023-02-04T14:26:22;6.73;;;6.64;;
71172;SDS011;58875;51.996;4.504;2023-02-04T14:28:48;7.24;;;6.97;;
71172;SDS011;58875;51.996;4.504;2023-02-04T14:31:13;7.39;;;7.10;;
71172;SDS011;58875;51.996;4.504;2023-02-04T14:33:39;7.05;;;6.81;;
71172;SDS011;58875;51.996;4.504;2023-02-04T14:36:05;7.18;;;6.94;;
71172;SDS011;58875;51.996;4.504;2023-02-04T14:38:30;7.71;;;7.37;;
71172;SDS011;58875;51.996;4.504;2023-02-04T14:40:57;7.71;;;7.36;;
71172;SDS011;58875;51.996;4.504;2023-02-04T14:43:23;7.58;;;7.20;;
71172;SDS011;58875;51.996;4.504;2023-02-04T14:45:49;7.75;;;7.36;;
71172;SDS011;58875;51.996;4.504;2023-02-04T14:48:14;7.66;;;7.36;;
71172;SDS011;58875;51.996;4.504;2023-02-04T14:50:40;7.47;;;7.37;;
71172;SDS011;58875;51.996;4.504;2023-02-04T14:53:05;8.62;;;8.48;;
71172;SDS011;58875;51.996;4.504;2023-02-04T14:55:31;9.05;;;8.88;;
71172;SDS011;58875;51.996;4.504;2023-02-04T14:57:56;9.67;;;9.51;;
71172;SDS011;58875;51.996;4.504;2023-02-04T15:00:22;9.65;;;9.50;;
71172;SDS011;58875;51.996;4.504;2023-02-04T15:02:48;9.63;;;9.47;;
71172;SDS011;58875;51.996;4.504;2023-02-04T15:05:13;10.28;;;10.06;;